sensor_id;sensor_type;location;lat;lon;timestamp;P1;durP1;ratioP1;P2;durP2;ratioP2
24084;SDS011;12268;52.110;5.548;2023-04-03T00:01:20;4.85;;;2.20;;
24084;SDS011;12268;52.110;5.548;2023-04-03T00:03:46;8.82;;;2.05;;
24084;SDS011;12268;52.110;5.548;2023-04-03T00:06:12;3.80;;;2.45;;
24084;SDS011;12268;52.110;5.548;2023-04-03T00:08:38;4.00;;;1.88;;
24084;SDS011;12268;52.110;5.548;2023-04-03T00:11:05;4.63;;;2.40;;
24084;SDS011;12268;52.110;5.548;2023-04-03T00:13:31;3.63;;;1.80;;
24084;SDS011;12268;52.110;5.548;2023-04-03T00:15:57;5.05;;;2.42;;
24084;SDS011;12268;52.110;5.548;2023-04-03T00:18:23;4.18;;;2.17;;
24084;SDS011;12268;52.110;5.548;2023-04-03T00:20:49;4.95;;;1.83;;
24084;SDS011;12268;52.110;5.548;2023-04-03T00:23:14;12.45;;;2.30;;
24084;SDS011;12268;52.110;5.548;2023-04-03T00:25:40;3.35;;;1.70;;
24084;SDS011;12268;52.110;5.548;2023-04-03T00:28:06;3.50;;;2.10;;
24084;SDS011;12268;52.110;5.548;2023-04-03T00:30:32;2.65;;;1.70;;
24084;SDS011;12268;52.110;5.548;2023-04-03T00:32:57;5.10;;;1.92;;
24084;SDS011;12268;52.110;5.548;2023-04-03T00:35:24;2.75;;;1.77;;
24084;SDS011;12268;52.110;5.548;2023-04-03T00:37:50;4.03;;;2.13;;
24084;SDS011;12268;52.110;5.548;2023-04-03T00:40:17;3.28;;;2.28;;
24084;SDS011;12268;52.110;5.548;2023-04-03T00:42:44;2.63;;;1.92;;
24084;SDS011;12268;52.110;5.548;2023-04-03T00:47:42;5.80;;;2.20;;
24084;SDS011;12268;52.110;5.548;2023-04-03T00:50:09;4.40;;;2.00;;
24084;SDS011;12268;52.110;5.548;2023-04-03T00:52:35;3.85;;;1.95;;
24084;SDS011;12268;52.110;5.548;2023-04-03T00:55:03;3.20;;;1.92;;
24084;SDS011;12268;52.110;5.548;2023-04-03T00:57:32;3.90;;;2.00;;
24084;SDS011;12268;52.110;5.548;2023-04-03T01:00:05;2.67;;;1.90;;
24084;SDS011;12268;52.110;5.548;2023-04-03T01:02:34;4.72;;;2.42;;
24084;SDS011;12268;52.110;5.548;2023-04-03T01:05:00;3.40;;;2.00;;
24084;SDS011;12268;52.110;5.548;2023-04-03T01:07:34;3.53;;;1.77;;
24084;SDS011;12268;52.110;5.548;2023-04-03T01:10:03;2.45;;;1.75;;
24084;SDS011;12268;52.110;5.548;2023-04-03T01:12:35;3.58;;;2.00;;
24084;SDS011;12268;52.110;5.548;2023-04-03T01:15:13;2.88;;;2.15;;
24084;SDS011;12268;52.110;5.548;2023-04-03T01:17:45;6.72;;;1.80;;
24084;SDS011;12268;52.110;5.548;2023-04-03T01:25:37;2.83;;;1.95;;
24084;SDS011;12268;52.110;5.548;2023-04-03T01:28:06;3.40;;;2.22;;
24084;SDS011;12268;52.110;5.548;2023-04-03T01:30:36;3.42;;;2.10;;
24084;SDS011;12268;52.110;5.548;2023-04-03T01:33:10;3.10;;;1.90;;
24084;SDS011;12268;52.110;5.548;2023-04-03T01:35:35;3.05;;;2.05;;
24084;SDS011;12268;52.110;5.548;2023-04-03T01:38:02;3.03;;;1.80;;
24084;SDS011;12268;52.110;5.548;2023-04-03T01:40:27;4.22;;;1.85;;
24084;SDS011;12268;52.110;5.548;2023-04-03T01:42:53;3.92;;;2.17;;
24084;SDS011;12268;52.110;5.548;2023-04-03T01:45:18;5.80;;;2.40;;
24084;SDS011;12268;52.110;5.548;2023-04-03T01:47:44;4.72;;;2.28;;
24084;SDS011;12268;52.110;5.548;2023-04-03T01:50:09;5.93;;;2.10;;
24084;SDS011;12268;52.110;5.548;2023-04-03T01:52:35;5.00;;;2.00;;
24084;SDS011;12268;52.110;5.548;2023-04-03T01:55:01;3.08;;;1.88;;
24084;SDS011;12268;52.110;5.548;2023-04-03T01:57:26;3.55;;;2.30;;
24084;SDS011;12268;52.110;5.548;2023-04-03T01:59:52;5.07;;;2.00;;
24084;SDS011;12268;52.110;5.548;2023-04-03T02:02:17;4.80;;;2.20;;
24084;SDS011;12268;52.110;5.548;2023-04-03T02:04:45;4.95;;;2.25;;
24084;SDS011;12268;52.110;5.548;2023-04-03T02:07:10;3.50;;;2.00;;
24084;SDS011;12268;52.110;5.548;2023-04-03T02:09:36;3.45;;;2.17;;
24084;SDS011;12268;52.110;5.548;2023-04-03T02:12:01;4.28;;;2.13;;
24084;SDS011;12268;52.110;5.548;2023-04-03T02:14:27;3.78;;;2.03;;
24084;SDS011;12268;52.110;5.548;2023-04-03T02:16:53;9.70;;;2.72;;
24084;SDS011;12268;52.110;5.548;2023-04-03T02:19:18;5.63;;;2.10;;
24084;SDS011;12268;52.110;5.548;2023-04-03T02:21:44;5.00;;;2.03;;
24084;SDS011;12268;52.110;5.548;2023-04-03T02:24:10;3.53;;;2.17;;
24084;SDS011;12268;52.110;5.548;2023-04-03T02:26:35;4.00;;;2.33;;
24084;SDS011;12268;52.110;5.548;2023-04-03T02:29:01;4.22;;;2.30;;
24084;SDS011;12268;52.110;5.548;2023-04-03T02:31:26;3.03;;;2.17;;
24084;SDS011;12268;52.110;5.548;2023-04-03T02:33:52;4.93;;;2.38;;
24084;SDS011;12268;52.110;5.548;2023-04-03T02:36:17;5.05;;;2.22;;
24084;SDS011;12268;52.110;5.548;2023-04-03T02:38:43;6.47;;;2.38;;
24084;SDS011;12268;52.110;5.548;2023-04-03T02:41:09;4.20;;;2.58;;
24084;SDS011;12268;52.110;5.548;2023-04-03T02:43:36;3.15;;;2.10;;
24084;SDS011;12268;52.110;5.548;2023-04-03T02:46:02;6.97;;;3.08;;
24084;SDS011;12268;52.110;5.548;2023-04-03T02:48:28;5.43;;;2.60;;
24084;SDS011;12268;52.110;5.548;2023-04-03T02:50:54;5.78;;;2.58;;
24084;SDS011;12268;52.110;5.548;2023-04-03T02:53:20;4.35;;;2.28;;
24084;SDS011;12268;52.110;5.548;2023-04-03T02:55:46;4.68;;;2.17;;
24084;SDS011;12268;52.110;5.548;2023-04-03T02:58:11;6.68;;;2.70;;
24084;SDS011;12268;52.110;5.548;2023-04-03T03:00:37;7.72;;;2.50;;
24084;SDS011;12268;52.110;5.548;2023-04-03T03:03:03;4.32;;;2.20;;
24084;SDS011;12268;52.110;5.548;2023-04-03T03:05:28;4.05;;;2.25;;
24084;SDS011;12268;52.110;5.548;2023-04-03T03:07:55;4.85;;;2.25;;
24084;SDS011;12268;52.110;5.548;2023-04-03T03:10:21;4.95;;;2.45;;
24084;SDS011;12268;52.110;5.548;2023-04-03T03:12:47;6.20;;;2.70;;
24084;SDS011;12268;52.110;5.548;2023-04-03T03:15:12;4.90;;;2.50;;
24084;SDS011;12268;52.110;5.548;2023-04-03T03:17:38;6.80;;;2.72;;
24084;SDS011;12268;52.110;5.548;2023-04-03T03:20:04;3.63;;;2.22;;
24084;SDS011;12268;52.110;5.548;2023-04-03T03:22:30;4.88;;;2.40;;
24084;SDS011;12268;52.110;5.548;2023-04-03T03:24:57;9.13;;;2.60;;
24084;SDS011;12268;52.110;5.548;2023-04-03T03:27:23;5.03;;;2.65;;
24084;SDS011;12268;52.110;5.548;2023-04-03T03:29:49;7.93;;;2.60;;
24084;SDS011;12268;52.110;5.548;2023-04-03T03:32:15;5.60;;;2.67;;
24084;SDS011;12268;52.110;5.548;2023-04-03T03:34:40;9.05;;;3.00;;
24084;SDS011;12268;52.110;5.548;2023-04-03T03:37:06;6.13;;;3.00;;
24084;SDS011;12268;52.110;5.548;2023-04-03T03:39:32;6.35;;;2.80;;
24084;SDS011;12268;52.110;5.548;2023-04-03T03:41:57;5.03;;;2.53;;
24084;SDS011;12268;52.110;5.548;2023-04-03T03:44:23;5.43;;;2.67;;
24084;SDS011;12268;52.110;5.548;2023-04-03T03:46:48;5.40;;;2.60;;
24084;SDS011;12268;52.110;5.548;2023-04-03T03:49:14;5.78;;;2.50;;
24084;SDS011;12268;52.110;5.548;2023-04-03T03:51:39;8.05;;;2.30;;
24084;SDS011;12268;52.110;5.548;2023-04-03T03:54:05;4.75;;;2.83;;
24084;SDS011;12268;52.110;5.548;2023-04-03T03:56:31;4.88;;;2.55;;
24084;SDS011;12268;52.110;5.548;2023-04-03T03:58:57;5.97;;;2.72;;
24084;SDS011;12268;52.110;5.548;2023-04-03T04:01:23;5.28;;;3.00;;
24084;SDS011;12268;52.110;5.548;2023-04-03T04:03:48;5.40;;;2.45;;
24084;SDS011;12268;52.110;5.548;2023-04-03T04:06:14;6.70;;;2.70;;
24084;SDS011;12268;52.110;5.548;2023-04-03T04:08:40;5.85;;;2.65;;
24084;SDS011;12268;52.110;5.548;2023-04-03T04:11:05;7.38;;;2.92;;
24084;SDS011;12268;52.110;5.548;2023-04-03T04:13:31;5.78;;;2.40;;
24084;SDS011;12268;52.110;5.548;2023-04-03T04:15:57;4.45;;;2.88;;
24084;SDS011;12268;52.110;5.548;2023-04-03T04:18:22;6.95;;;2.83;;
24084;SDS011;12268;52.110;5.548;2023-04-03T04:20:48;4.90;;;3.10;;
24084;SDS011;12268;52.110;5.548;2023-04-03T04:23:15;3.60;;;2.53;;
24084;SDS011;12268;52.110;5.548;2023-04-03T04:25:44;5.10;;;2.83;;
24084;SDS011;12268;52.110;5.548;2023-04-03T04:28:10;6.07;;;2.42;;
24084;SDS011;12268;52.110;5.548;2023-04-03T04:30:36;4.47;;;2.65;;
24084;SDS011;12268;52.110;5.548;2023-04-03T04:33:01;6.53;;;2.55;;
24084;SDS011;12268;52.110;5.548;2023-04-03T04:35:27;9.05;;;3.30;;
24084;SDS011;12268;52.110;5.548;2023-04-03T04:37:52;5.57;;;2.80;;
24084;SDS011;12268;52.110;5.548;2023-04-03T04:40:18;3.67;;;2.90;;
24084;SDS011;12268;52.110;5.548;2023-04-03T04:45:23;10.73;;;3.20;;
24084;SDS011;12268;52.110;5.548;2023-04-03T04:47:48;5.88;;;2.85;;
24084;SDS011;12268;52.110;5.548;2023-04-03T04:50:16;4.60;;;3.03;;
24084;SDS011;12268;52.110;5.548;2023-04-03T04:52:41;9.38;;;2.90;;
24084;SDS011;12268;52.110;5.548;2023-04-03T04:55:07;6.38;;;3.10;;
24084;SDS011;12268;52.110;5.548;2023-04-03T04:57:33;5.68;;;2.60;;
24084;SDS011;12268;52.110;5.548;2023-04-03T04:59:59;4.00;;;2.90;;
24084;SDS011;12268;52.110;5.548;2023-04-03T05:02:25;5.25;;;3.13;;
24084;SDS011;12268;52.110;5.548;2023-04-03T05:04:50;4.53;;;2.50;;
24084;SDS011;12268;52.110;5.548;2023-04-03T05:07:17;8.63;;;3.00;;
24084;SDS011;12268;52.110;5.548;2023-04-03T05:09:42;5.72;;;2.70;;
24084;SDS011;12268;52.110;5.548;2023-04-03T05:12:08;6.20;;;2.65;;
24084;SDS011;12268;52.110;5.548;2023-04-03T05:14:33;11.18;;;3.13;;
24084;SDS011;12268;52.110;5.548;2023-04-03T05:16:59;6.63;;;3.25;;
24084;SDS011;12268;52.110;5.548;2023-04-03T05:19:24;5.88;;;2.88;;
24084;SDS011;12268;52.110;5.548;2023-04-03T05:21:50;6.28;;;2.63;;
24084;SDS011;12268;52.110;5.548;2023-04-03T05:24:16;7.25;;;3.35;;
24084;SDS011;12268;52.110;5.548;2023-04-03T05:26:41;5.95;;;3.00;;
24084;SDS011;12268;52.110;5.548;2023-04-03T05:29:08;4.20;;;2.97;;
24084;SDS011;12268;52.110;5.548;2023-04-03T05:31:33;7.60;;;3.05;;
24084;SDS011;12268;52.110;5.548;2023-04-03T05:33:59;9.85;;;3.28;;
24084;SDS011;12268;52.110;5.548;2023-04-03T05:36:25;10.18;;;3.00;;
24084;SDS011;12268;52.110;5.548;2023-04-03T05:38:51;5.18;;;3.20;;
24084;SDS011;12268;52.110;5.548;2023-04-03T05:41:17;9.05;;;3.03;;
24084;SDS011;12268;52.110;5.548;2023-04-03T05:43:43;7.82;;;3.47;;
24084;SDS011;12268;52.110;5.548;2023-04-03T05:46:12;7.85;;;3.00;;
24084;SDS011;12268;52.110;5.548;2023-04-03T05:48:42;5.65;;;3.10;;
24084;SDS011;12268;52.110;5.548;2023-04-03T05:53:42;10.50;;;3.30;;
24084;SDS011;12268;52.110;5.548;2023-04-03T05:56:09;5.65;;;3.40;;
24084;SDS011;12268;52.110;5.548;2023-04-03T05:58:34;7.93;;;3.63;;
24084;SDS011;12268;52.110;5.548;2023-04-03T06:01:00;6.28;;;2.78;;
24084;SDS011;12268;52.110;5.548;2023-04-03T06:03:26;6.63;;;2.72;;
24084;SDS011;12268;52.110;5.548;2023-04-03T06:05:52;7.38;;;2.92;;
24084;SDS011;12268;52.110;5.548;2023-04-03T06:08:17;4.72;;;2.90;;
24084;SDS011;12268;52.110;5.548;2023-04-03T06:10:43;6.35;;;3.08;;
24084;SDS011;12268;52.110;5.548;2023-04-03T06:13:09;4.78;;;3.15;;
24084;SDS011;12268;52.110;5.548;2023-04-03T06:15:35;7.22;;;2.60;;
24084;SDS011;12268;52.110;5.548;2023-04-03T06:18:01;7.65;;;2.78;;
24084;SDS011;12268;52.110;5.548;2023-04-03T06:20:27;6.70;;;3.42;;
24084;SDS011;12268;52.110;5.548;2023-04-03T06:22:52;6.32;;;3.35;;
24084;SDS011;12268;52.110;5.548;2023-04-03T06:25:18;5.32;;;2.83;;
24084;SDS011;12268;52.110;5.548;2023-04-03T06:27:44;5.05;;;3.20;;
24084;SDS011;12268;52.110;5.548;2023-04-03T06:30:10;5.80;;;2.60;;
24084;SDS011;12268;52.110;5.548;2023-04-03T06:32:36;6.78;;;3.00;;
24084;SDS011;12268;52.110;5.548;2023-04-03T06:35:03;8.70;;;3.33;;
24084;SDS011;12268;52.110;5.548;2023-04-03T06:37:29;9.07;;;2.92;;
24084;SDS011;12268;52.110;5.548;2023-04-03T06:39:55;3.63;;;2.17;;
24084;SDS011;12268;52.110;5.548;2023-04-03T06:42:21;8.45;;;2.63;;
24084;SDS011;12268;52.110;5.548;2023-04-03T06:44:47;6.97;;;2.60;;
24084;SDS011;12268;52.110;5.548;2023-04-03T06:47:13;7.30;;;2.53;;
24084;SDS011;12268;52.110;5.548;2023-04-03T06:49:39;5.63;;;2.20;;
24084;SDS011;12268;52.110;5.548;2023-04-03T06:52:06;4.15;;;2.50;;
24084;SDS011;12268;52.110;5.548;2023-04-03T06:54:32;9.27;;;2.83;;
24084;SDS011;12268;52.110;5.548;2023-04-03T06:56:58;7.65;;;2.55;;
24084;SDS011;12268;52.110;5.548;2023-04-03T06:59:23;6.03;;;2.88;;
24084;SDS011;12268;52.110;5.548;2023-04-03T07:01:49;7.35;;;2.20;;
24084;SDS011;12268;52.110;5.548;2023-04-03T07:04:15;7.50;;;2.60;;
24084;SDS011;12268;52.110;5.548;2023-04-03T07:06:41;7.05;;;2.95;;
24084;SDS011;12268;52.110;5.548;2023-04-03T07:09:07;7.35;;;2.53;;
24084;SDS011;12268;52.110;5.548;2023-04-03T07:11:34;5.13;;;2.53;;
24084;SDS011;12268;52.110;5.548;2023-04-03T07:14:00;6.45;;;2.67;;
24084;SDS011;12268;52.110;5.548;2023-04-03T07:16:26;4.50;;;2.53;;
24084;SDS011;12268;52.110;5.548;2023-04-03T07:18:52;7.93;;;2.13;;
24084;SDS011;12268;52.110;5.548;2023-04-03T07:21:17;12.93;;;2.70;;
24084;SDS011;12268;52.110;5.548;2023-04-03T07:23:43;5.75;;;2.60;;
24084;SDS011;12268;52.110;5.548;2023-04-03T07:26:08;7.30;;;2.60;;
24084;SDS011;12268;52.110;5.548;2023-04-03T07:28:34;4.05;;;1.98;;
24084;SDS011;12268;52.110;5.548;2023-04-03T07:31:04;5.68;;;2.63;;
24084;SDS011;12268;52.110;5.548;2023-04-03T07:33:33;6.78;;;2.53;;
24084;SDS011;12268;52.110;5.548;2023-04-03T07:36:00;5.40;;;2.40;;
24084;SDS011;12268;52.110;5.548;2023-04-03T07:38:26;7.40;;;2.13;;
24084;SDS011;12268;52.110;5.548;2023-04-03T07:40:52;3.30;;;2.30;;
24084;SDS011;12268;52.110;5.548;2023-04-03T07:43:18;10.63;;;2.65;;
24084;SDS011;12268;52.110;5.548;2023-04-03T07:45:45;4.78;;;2.28;;
24084;SDS011;12268;52.110;5.548;2023-04-03T07:48:12;7.25;;;2.22;;
24084;SDS011;12268;52.110;5.548;2023-04-03T07:50:41;5.63;;;2.38;;
24084;SDS011;12268;52.110;5.548;2023-04-03T07:53:06;7.97;;;1.85;;
24084;SDS011;12268;52.110;5.548;2023-04-03T07:55:32;2.90;;;1.73;;
24084;SDS011;12268;52.110;5.548;2023-04-03T07:57:58;4.28;;;2.00;;
24084;SDS011;12268;52.110;5.548;2023-04-03T08:00:24;4.60;;;2.13;;
24084;SDS011;12268;52.110;5.548;2023-04-03T08:02:50;5.32;;;1.95;;
24084;SDS011;12268;52.110;5.548;2023-04-03T08:05:19;3.35;;;1.75;;
24084;SDS011;12268;52.110;5.548;2023-04-03T08:07:46;5.15;;;1.98;;
24084;SDS011;12268;52.110;5.548;2023-04-03T08:10:12;5.82;;;2.00;;
24084;SDS011;12268;52.110;5.548;2023-04-03T08:12:39;6.50;;;1.75;;
24084;SDS011;12268;52.110;5.548;2023-04-03T08:15:05;8.23;;;2.13;;
24084;SDS011;12268;52.110;5.548;2023-04-03T08:17:32;4.70;;;1.88;;
24084;SDS011;12268;52.110;5.548;2023-04-03T08:19:57;2.50;;;1.52;;
24084;SDS011;12268;52.110;5.548;2023-04-03T08:22:23;4.85;;;1.85;;
24084;SDS011;12268;52.110;5.548;2023-04-03T08:24:48;4.57;;;1.63;;
24084;SDS011;12268;52.110;5.548;2023-04-03T08:27:14;3.60;;;1.40;;
24084;SDS011;12268;52.110;5.548;2023-04-03T08:29:40;4.53;;;1.45;;
24084;SDS011;12268;52.110;5.548;2023-04-03T08:32:05;3.30;;;1.73;;
24084;SDS011;12268;52.110;5.548;2023-04-03T08:34:31;3.78;;;1.63;;
24084;SDS011;12268;52.110;5.548;2023-04-03T08:36:59;3.30;;;1.55;;
24084;SDS011;12268;52.110;5.548;2023-04-03T08:39:25;2.50;;;1.45;;
24084;SDS011;12268;52.110;5.548;2023-04-03T08:41:52;4.00;;;1.30;;
24084;SDS011;12268;52.110;5.548;2023-04-03T08:47:28;3.60;;;1.10;;
24084;SDS011;12268;52.110;5.548;2023-04-03T08:50:07;2.05;;;1.30;;
24084;SDS011;12268;52.110;5.548;2023-04-03T08:52:42;3.90;;;1.35;;
24084;SDS011;12268;52.110;5.548;2023-04-03T08:58:11;1.58;;;1.15;;
24084;SDS011;12268;52.110;5.548;2023-04-03T09:00:56;4.30;;;1.30;;
24084;SDS011;12268;52.110;5.548;2023-04-03T09:03:29;3.40;;;1.08;;
24084;SDS011;12268;52.110;5.548;2023-04-03T09:06:00;2.95;;;1.50;;
24084;SDS011;12268;52.110;5.548;2023-04-03T09:13:57;1.40;;;1.10;;
24084;SDS011;12268;52.110;5.548;2023-04-03T09:21:56;2.20;;;1.20;;
24084;SDS011;12268;52.110;5.548;2023-04-03T09:24:22;2.25;;;1.10;;
24084;SDS011;12268;52.110;5.548;2023-04-03T09:26:53;2.88;;;1.20;;
24084;SDS011;12268;52.110;5.548;2023-04-03T09:29:27;2.08;;;1.05;;
24084;SDS011;12268;52.110;5.548;2023-04-03T09:31:56;2.22;;;0.90;;
24084;SDS011;12268;52.110;5.548;2023-04-03T09:34:29;2.10;;;1.10;;
24084;SDS011;12268;52.110;5.548;2023-04-03T09:37:01;2.70;;;1.00;;
24084;SDS011;12268;52.110;5.548;2023-04-03T09:39:48;2.75;;;1.00;;
24084;SDS011;12268;52.110;5.548;2023-04-03T09:42:22;1.55;;;1.00;;
24084;SDS011;12268;52.110;5.548;2023-04-03T09:44:56;1.48;;;1.02;;
24084;SDS011;12268;52.110;5.548;2023-04-03T09:52:39;1.73;;;1.07;;
24084;SDS011;12268;52.110;5.548;2023-04-03T09:55:22;2.28;;;1.00;;
24084;SDS011;12268;52.110;5.548;2023-04-03T09:57:54;1.35;;;0.80;;
24084;SDS011;12268;52.110;5.548;2023-04-03T10:00:23;3.03;;;0.93;;
24084;SDS011;12268;52.110;5.548;2023-04-03T10:03:01;2.05;;;0.88;;
24084;SDS011;12268;52.110;5.548;2023-04-03T10:05:28;2.25;;;0.90;;
24084;SDS011;12268;52.110;5.548;2023-04-03T10:10:43;3.75;;;1.05;;
24084;SDS011;12268;52.110;5.548;2023-04-03T10:13:13;2.08;;;0.95;;
24084;SDS011;12268;52.110;5.548;2023-04-03T10:15:54;2.97;;;0.88;;
24084;SDS011;12268;52.110;5.548;2023-04-03T10:18:58;2.00;;;1.00;;
24084;SDS011;12268;52.110;5.548;2023-04-03T10:27:27;1.20;;;1.10;;
24084;SDS011;12268;52.110;5.548;2023-04-03T10:32:57;4.47;;;1.10;;
24084;SDS011;12268;52.110;5.548;2023-04-03T10:35:39;1.25;;;0.70;;
24084;SDS011;12268;52.110;5.548;2023-04-03T10:38:31;4.38;;;1.20;;
24084;SDS011;12268;52.110;5.548;2023-04-03T10:41:27;2.65;;;1.10;;
24084;SDS011;12268;52.110;5.548;2023-04-03T10:46:53;2.22;;;0.93;;
24084;SDS011;12268;52.110;5.548;2023-04-03T10:55:19;2.30;;;1.30;;
24084;SDS011;12268;52.110;5.548;2023-04-03T10:58:06;2.83;;;1.25;;
24084;SDS011;12268;52.110;5.548;2023-04-03T11:00:42;2.40;;;1.05;;
24084;SDS011;12268;52.110;5.548;2023-04-03T11:05:49;5.68;;;1.17;;
24084;SDS011;12268;52.110;5.548;2023-04-03T11:08:25;2.72;;;1.20;;
24084;SDS011;12268;52.110;5.548;2023-04-03T11:10:59;2.30;;;1.00;;
24084;SDS011;12268;52.110;5.548;2023-04-03T11:16:23;1.35;;;0.82;;
24084;SDS011;12268;52.110;5.548;2023-04-03T11:21:44;2.40;;;1.35;;
24084;SDS011;12268;52.110;5.548;2023-04-03T11:24:23;4.90;;;1.15;;
24084;SDS011;12268;52.110;5.548;2023-04-03T11:26:52;2.33;;;1.15;;
24084;SDS011;12268;52.110;5.548;2023-04-03T11:29:21;1.90;;;1.10;;
24084;SDS011;12268;52.110;5.548;2023-04-03T11:32:36;2.03;;;1.08;;
24084;SDS011;12268;52.110;5.548;2023-04-03T11:34:45;5.28;;;1.23;;
24084;SDS011;12268;52.110;5.548;2023-04-03T11:37:35;4.43;;;1.10;;
24084;SDS011;12268;52.110;5.548;2023-04-03T11:40:06;4.43;;;1.20;;
24084;SDS011;12268;52.110;5.548;2023-04-03T11:42:48;2.47;;;1.15;;
24084;SDS011;12268;52.110;5.548;2023-04-03T11:45:17;2.28;;;1.10;;
24084;SDS011;12268;52.110;5.548;2023-04-03T11:50:52;3.78;;;1.20;;
24084;SDS011;12268;52.110;5.548;2023-04-03T11:56:01;2.42;;;0.90;;
24084;SDS011;12268;52.110;5.548;2023-04-03T11:58:30;1.95;;;1.02;;
24084;SDS011;12268;52.110;5.548;2023-04-03T12:00:58;3.13;;;1.20;;
24084;SDS011;12268;52.110;5.548;2023-04-03T12:03:30;3.17;;;1.10;;
24084;SDS011;12268;52.110;5.548;2023-04-03T12:06:41;4.00;;;1.00;;
24084;SDS011;12268;52.110;5.548;2023-04-03T12:08:52;1.30;;;0.90;;
24084;SDS011;12268;52.110;5.548;2023-04-03T12:11:24;2.13;;;1.08;;
24084;SDS011;12268;52.110;5.548;2023-04-03T12:16:27;2.80;;;1.05;;
24084;SDS011;12268;52.110;5.548;2023-04-03T12:19:03;2.38;;;1.20;;
24084;SDS011;12268;52.110;5.548;2023-04-03T12:35:29;3.05;;;1.10;;
24084;SDS011;12268;52.110;5.548;2023-04-03T12:46:20;2.72;;;1.10;;
24084;SDS011;12268;52.110;5.548;2023-04-03T12:48:49;2.10;;;1.10;;
24084;SDS011;12268;52.110;5.548;2023-04-03T12:54:00;3.22;;;1.20;;
24084;SDS011;12268;52.110;5.548;2023-04-03T12:56:29;2.92;;;1.20;;
24084;SDS011;12268;52.110;5.548;2023-04-03T12:59:12;2.25;;;1.08;;
24084;SDS011;12268;52.110;5.548;2023-04-03T13:01:58;2.58;;;1.30;;
24084;SDS011;12268;52.110;5.548;2023-04-03T13:04:29;2.60;;;1.23;;
24084;SDS011;12268;52.110;5.548;2023-04-03T13:06:56;3.13;;;1.20;;
24084;SDS011;12268;52.110;5.548;2023-04-03T13:09:29;4.32;;;1.40;;
24084;SDS011;12268;52.110;5.548;2023-04-03T13:11:58;2.25;;;1.20;;
24084;SDS011;12268;52.110;5.548;2023-04-03T13:14:27;3.90;;;1.85;;
24084;SDS011;12268;52.110;5.548;2023-04-03T13:19:25;2.38;;;1.30;;
24084;SDS011;12268;52.110;5.548;2023-04-03T13:21:56;2.60;;;1.35;;
24084;SDS011;12268;52.110;5.548;2023-04-03T13:24:31;2.63;;;1.30;;
24084;SDS011;12268;52.110;5.548;2023-04-03T13:27:00;3.83;;;1.38;;
24084;SDS011;12268;52.110;5.548;2023-04-03T13:29:27;5.07;;;1.33;;
24084;SDS011;12268;52.110;5.548;2023-04-03T13:31:58;3.20;;;1.45;;
24084;SDS011;12268;52.110;5.548;2023-04-03T13:34:26;3.42;;;1.38;;
24084;SDS011;12268;52.110;5.548;2023-04-03T13:39:27;3.15;;;1.40;;
24084;SDS011;12268;52.110;5.548;2023-04-03T13:41:59;3.53;;;1.33;;
24084;SDS011;12268;52.110;5.548;2023-04-03T13:46:56;4.22;;;1.23;;
24084;SDS011;12268;52.110;5.548;2023-04-03T13:49:39;5.20;;;1.40;;
24084;SDS011;12268;52.110;5.548;2023-04-03T13:55:01;4.75;;;1.30;;
24084;SDS011;12268;52.110;5.548;2023-04-03T13:57:48;2.30;;;1.23;;
24084;SDS011;12268;52.110;5.548;2023-04-03T14:03:11;1.73;;;1.00;;
24084;SDS011;12268;52.110;5.548;2023-04-03T14:05:47;2.90;;;1.30;;
24084;SDS011;12268;52.110;5.548;2023-04-03T14:08:13;6.07;;;1.63;;
24084;SDS011;12268;52.110;5.548;2023-04-03T14:10:38;3.00;;;1.42;;
24084;SDS011;12268;52.110;5.548;2023-04-03T14:13:04;3.65;;;1.40;;
24084;SDS011;12268;52.110;5.548;2023-04-03T14:15:30;3.90;;;1.30;;
24084;SDS011;12268;52.110;5.548;2023-04-03T14:17:57;5.45;;;1.40;;
24084;SDS011;12268;52.110;5.548;2023-04-03T14:20:24;3.30;;;1.80;;
24084;SDS011;12268;52.110;5.548;2023-04-03T14:22:52;2.35;;;1.35;;
24084;SDS011;12268;52.110;5.548;2023-04-03T14:25:18;5.75;;;1.73;;
24084;SDS011;12268;52.110;5.548;2023-04-03T14:27:46;3.33;;;1.50;;
24084;SDS011;12268;52.110;5.548;2023-04-03T14:30:15;3.60;;;1.25;;
24084;SDS011;12268;52.110;5.548;2023-04-03T14:32:45;4.03;;;1.67;;
24084;SDS011;12268;52.110;5.548;2023-04-03T14:35:11;3.60;;;1.55;;
24084;SDS011;12268;52.110;5.548;2023-04-03T14:37:37;3.45;;;1.55;;
24084;SDS011;12268;52.110;5.548;2023-04-03T14:40:04;3.15;;;1.60;;
24084;SDS011;12268;52.110;5.548;2023-04-03T14:42:31;2.83;;;1.35;;
24084;SDS011;12268;52.110;5.548;2023-04-03T14:44:59;3.20;;;1.42;;
24084;SDS011;12268;52.110;5.548;2023-04-03T14:47:26;5.45;;;2.03;;
24084;SDS011;12268;52.110;5.548;2023-04-03T14:49:53;3.97;;;1.80;;
24084;SDS011;12268;52.110;5.548;2023-04-03T14:54:47;4.95;;;1.83;;
24084;SDS011;12268;52.110;5.548;2023-04-03T14:57:14;4.03;;;1.90;;
24084;SDS011;12268;52.110;5.548;2023-04-03T14:59:41;3.92;;;1.70;;
24084;SDS011;12268;52.110;5.548;2023-04-03T15:02:21;4.80;;;1.80;;
24084;SDS011;12268;52.110;5.548;2023-04-03T15:04:51;2.95;;;1.50;;
24084;SDS011;12268;52.110;5.548;2023-04-03T15:07:17;3.00;;;1.77;;
24084;SDS011;12268;52.110;5.548;2023-04-03T15:09:42;2.35;;;1.58;;
24084;SDS011;12268;52.110;5.548;2023-04-03T15:12:08;4.15;;;1.95;;
24084;SDS011;12268;52.110;5.548;2023-04-03T15:14:34;5.20;;;1.92;;
24084;SDS011;12268;52.110;5.548;2023-04-03T15:17:00;4.72;;;1.98;;
24084;SDS011;12268;52.110;5.548;2023-04-03T15:19:27;6.50;;;2.17;;
24084;SDS011;12268;52.110;5.548;2023-04-03T15:21:52;3.33;;;1.60;;
24084;SDS011;12268;52.110;5.548;2023-04-03T15:24:18;6.70;;;2.20;;
24084;SDS011;12268;52.110;5.548;2023-04-03T15:26:43;3.00;;;1.60;;
24084;SDS011;12268;52.110;5.548;2023-04-03T15:29:09;5.38;;;1.83;;
24084;SDS011;12268;52.110;5.548;2023-04-03T15:31:35;5.05;;;1.80;;
24084;SDS011;12268;52.110;5.548;2023-04-03T15:34:00;4.15;;;1.70;;
24084;SDS011;12268;52.110;5.548;2023-04-03T15:36:27;3.13;;;1.90;;
24084;SDS011;12268;52.110;5.548;2023-04-03T15:38:53;4.57;;;1.90;;
24084;SDS011;12268;52.110;5.548;2023-04-03T15:41:18;5.07;;;1.88;;
24084;SDS011;12268;52.110;5.548;2023-04-03T15:43:44;3.95;;;1.80;;
24084;SDS011;12268;52.110;5.548;2023-04-03T15:46:09;2.78;;;1.60;;
24084;SDS011;12268;52.110;5.548;2023-04-03T15:48:35;5.32;;;1.90;;
24084;SDS011;12268;52.110;5.548;2023-04-03T15:51:01;3.03;;;1.60;;
24084;SDS011;12268;52.110;5.548;2023-04-03T15:53:27;3.47;;;1.80;;
24084;SDS011;12268;52.110;5.548;2023-04-03T15:55:52;3.50;;;1.65;;
24084;SDS011;12268;52.110;5.548;2023-04-03T15:58:18;3.20;;;1.75;;
24084;SDS011;12268;52.110;5.548;2023-04-03T16:00:43;4.28;;;1.98;;
24084;SDS011;12268;52.110;5.548;2023-04-03T16:03:10;5.38;;;2.28;;
24084;SDS011;12268;52.110;5.548;2023-04-03T16:05:39;5.22;;;2.10;;
24084;SDS011;12268;52.110;5.548;2023-04-03T16:08:05;3.42;;;2.00;;
24084;SDS011;12268;52.110;5.548;2023-04-03T16:10:32;9.02;;;2.28;;
24084;SDS011;12268;52.110;5.548;2023-04-03T16:12:59;4.10;;;1.85;;
24084;SDS011;12268;52.110;5.548;2023-04-03T16:15:25;6.10;;;1.90;;
24084;SDS011;12268;52.110;5.548;2023-04-03T16:17:51;4.95;;;1.63;;
24084;SDS011;12268;52.110;5.548;2023-04-03T16:20:18;3.83;;;1.88;;
24084;SDS011;12268;52.110;5.548;2023-04-03T16:22:44;5.05;;;1.67;;
24084;SDS011;12268;52.110;5.548;2023-04-03T16:25:10;4.30;;;1.70;;
24084;SDS011;12268;52.110;5.548;2023-04-03T16:27:36;3.88;;;1.77;;
24084;SDS011;12268;52.110;5.548;2023-04-03T16:30:03;5.28;;;1.98;;
24084;SDS011;12268;52.110;5.548;2023-04-03T16:32:30;9.02;;;2.17;;
24084;SDS011;12268;52.110;5.548;2023-04-03T16:34:56;3.65;;;1.40;;
24084;SDS011;12268;52.110;5.548;2023-04-03T16:37:22;4.45;;;1.85;;
24084;SDS011;12268;52.110;5.548;2023-04-03T16:39:48;3.20;;;1.85;;
24084;SDS011;12268;52.110;5.548;2023-04-03T16:42:14;3.65;;;1.83;;
24084;SDS011;12268;52.110;5.548;2023-04-03T16:44:40;4.45;;;1.63;;
24084;SDS011;12268;52.110;5.548;2023-04-03T16:47:06;5.47;;;1.90;;